Time;durP1;ratioP1;P1;durP2;ratioP2;P2;SDS_P1;SDS_P2;PMS_P1;PMS_P2;Temp;Humidity;BMP_temperature;BMP_pressure;BME280_temperature;BME280_humidity;BME280_pressure;Samples;Min_cycle;Max_cycle;Signal;HPM_P1;HPM_P2
2021/10/16 00:00:43;;;;;;;9.52;8.20;;;;;;;;;;5072924;28;20204;-66
2021/10/16 00:03:09;;;;;;;10.13;8.20;;;;;;;;;;5072825;28;20216;-66
2021/10/16 00:05:36;;;;;;;8.65;7.82;;;;;;;;;;5073144;28;20537;-66
2021/10/16 00:08:03;;;;;;;13.23;7.07;;;;;;;;;;5072737;28;20212;-66
2021/10/16 00:10:29;;;;;;;8.30;7.38;;;;;;;;;;5072897;28;20245;-66
2021/10/16 00:12:57;;;;;;;8.07;7.28;;;;;;;;;;5073084;28;20568;-66
2021/10/16 00:15:26;;;;;;;9.95;7.90;;;;;;;;;;5073161;28;20192;-66
2021/10/16 00:17:53;;;;;;;9.75;7.75;;;;;;;;;;5073337;28;20232;-65
2021/10/16 00:20:22;;;;;;;9.55;7.75;;;;;;;;;;5073159;28;20191;-65
2021/10/16 00:22:49;;;;;;;9.40;8.50;;;;;;;;;;5073090;28;20216;-65
2021/10/16 00:25:16;;;;;;;8.98;8.05;;;;;;;;;;5073286;28;20184;-66
2021/10/16 00:27:42;;;;;;;9.35;8.55;;;;;;;;;;5076647;28;20188;-65
2021/10/16 00:30:09;;;;;;;9.48;8.57;;;;;;;;;;5076254;28;20188;-65
2021/10/16 00:32:36;;;;;;;10.65;8.45;;;;;;;;;;5076503;28;20200;-65
2021/10/16 00:35:03;;;;;;;8.45;7.78;;;;;;;;;;5076070;28;20208;-67
2021/10/16 00:37:29;;;;;;;14.25;8.48;;;;;;;;;;5076291;28;20192;-65
2021/10/16 00:39:56;;;;;;;8.20;7.47;;;;;;;;;;5076436;28;20199;-65
2021/10/16 00:42:23;;;;;;;9.60;8.30;;;;;;;;;;5075826;28;20236;-65
2021/10/16 00:44:49;;;;;;;10.35;8.35;;;;;;;;;;5074798;28;20640;-65
2021/10/16 00:47:16;;;;;;;8.05;7.30;;;;;;;;;;5076109;28;20220;-65
2021/10/16 00:49:45;;;;;;;12.00;8.07;;;;;;;;;;5076084;28;20207;-65
2021/10/16 00:52:12;;;;;;;10.88;8.27;;;;;;;;;;5076033;28;20215;-65
2021/10/16 00:54:39;;;;;;;9.35;8.50;;;;;;;;;;5076073;28;20210;-65
2021/10/16 00:57:07;;;;;;;11.45;8.55;;;;;;;;;;5075960;28;20200;-65
2021/10/16 00:59:34;;;;;;;9.80;8.90;;;;;;;;;;5076151;28;20200;-65
2021/10/16 01:02:01;;;;;;;11.10;9.73;;;;;;;;;;5076489;28;20219;-66
2021/10/16 01:04:27;;;;;;;9.45;7.93;;;;;;;;;;5075729;28;20211;-66
2021/10/16 01:06:54;;;;;;;12.23;8.93;;;;;;;;;;5075912;28;20196;-66
2021/10/16 01:09:21;;;;;;;13.45;9.55;;;;;;;;;;5075504;28;20562;-67
2021/10/16 01:11:52;;;;;;;10.98;9.75;;;;;;;;;;5075429;28;20204;-67
2021/10/16 01:14:20;;;;;;;10.35;8.95;;;;;;;;;;5074155;28;20200;-67
2021/10/16 01:16:51;;;;;;;10.40;9.40;;;;;;;;;;5075669;28;21090;-67
2021/10/16 01:19:18;;;;;;;13.40;8.82;;;;;;;;;;5075494;28;20177;-67
2021/10/16 01:21:46;;;;;;;9.32;8.43;;;;;;;;;;5075285;28;20220;-67
2021/10/16 01:24:14;;;;;;;9.85;8.73;;;;;;;;;;5075494;28;20217;-66
2021/10/16 01:26:42;;;;;;;8.75;7.97;;;;;;;;;;5076505;28;20203;-68
2021/10/16 01:29:10;;;;;;;12.43;8.35;;;;;;;;;;5074323;28;20218;-68
2021/10/16 01:31:40;;;;;;;9.70;8.80;;;;;;;;;;5075148;28;20202;-68
2021/10/16 01:34:07;;;;;;;8.93;8.00;;;;;;;;;;5075641;28;20215;-68
2021/10/16 01:36:40;;;;;;;9.45;7.88;;;;;;;;;;5073257;28;20681;-68
2021/10/16 01:39:08;;;;;;;9.35;8.35;;;;;;;;;;5075272;28;20173;-68
2021/10/16 01:41:34;;;;;;;7.65;6.90;;;;;;;;;;5074916;28;20227;-68
2021/10/16 01:44:05;;;;;;;9.07;8.18;;;;;;;;;;5075234;28;20198;-68
2021/10/16 01:46:32;;;;;;;8.70;7.88;;;;;;;;;;5075327;28;20180;-68
2021/10/16 01:48:59;;;;;;;8.18;7.38;;;;;;;;;;5075225;28;20211;-67
2021/10/16 01:51:26;;;;;;;10.90;8.52;;;;;;;;;;5074706;28;20200;-67
2021/10/16 01:53:53;;;;;;;11.35;8.75;;;;;;;;;;5074871;28;20204;-68
2021/10/16 01:56:20;;;;;;;10.32;9.27;;;;;;;;;;5074564;28;20204;-67
2021/10/16 01:58:46;;;;;;;11.52;9.63;;;;;;;;;;5074828;28;20200;-67
2021/10/16 02:01:13;;;;;;;12.68;10.13;;;;;;;;;;5075161;28;20691;-67
2021/10/16 02:03:40;;;;;;;11.52;9.60;;;;;;;;;;5075202;28;20598;-67
2021/10/16 02:06:06;;;;;;;11.70;10.50;;;;;;;;;;5074405;28;20216;-67
2021/10/16 02:08:33;;;;;;;11.45;10.27;;;;;;;;;;5073332;28;20260;-67
2021/10/16 02:11:04;;;;;;;11.65;9.75;;;;;;;;;;5074328;28;20234;-67
2021/10/16 02:13:31;;;;;;;16.27;11.20;;;;;;;;;;5074459;28;20200;-67
2021/10/16 02:15:57;;;;;;;13.50;10.75;;;;;;;;;;5074627;28;20678;-67
2021/10/16 02:18:24;;;;;;;14.18;10.88;;;;;;;;;;5074225;28;20235;-67
2021/10/16 02:20:50;;;;;;;16.17;12.25;;;;;;;;;;5074477;28;20207;-67
2021/10/16 02:23:17;;;;;;;15.73;10.90;;;;;;;;;;5074601;28;20230;-67
2021/10/16 02:25:44;;;;;;;11.13;9.82;;;;;;;;;;5074308;28;20194;-67
2021/10/16 02:28:10;;;;;;;13.75;11.23;;;;;;;;;;5073908;28;20662;-67
2021/10/16 02:30:37;;;;;;;13.52;11.15;;;;;;;;;;5074365;28;20191;-67
2021/10/16 02:33:03;;;;;;;11.30;10.18;;;;;;;;;;5074556;28;20200;-67
2021/10/16 02:35:30;;;;;;;21.52;11.77;;;;;;;;;;5074184;28;20188;-67
2021/10/16 02:37:56;;;;;;;14.32;10.90;;;;;;;;;;5074050;28;20204;-67
2021/10/16 02:40:23;;;;;;;11.15;10.10;;;;;;;;;;5074281;28;20556;-67
2021/10/16 02:42:50;;;;;;;17.75;11.27;;;;;;;;;;5074086;28;20265;-67
2021/10/16 02:45:18;;;;;;;17.52;11.13;;;;;;;;;;5074110;28;20651;-67
2021/10/16 02:47:46;;;;;;;13.98;9.95;;;;;;;;;;5073352;28;20219;-66
2021/10/16 02:50:13;;;;;;;12.27;10.77;;;;;;;;;;5073825;28;20200;-66
2021/10/16 02:52:40;;;;;;;14.88;10.20;;;;;;;;;;5073849;28;20200;-65
2021/10/16 02:55:07;;;;;;;11.60;10.25;;;;;;;;;;5074435;28;20551;-66
2021/10/16 02:57:34;;;;;;;11.88;9.70;;;;;;;;;;5073933;28;20208;-66
2021/10/16 03:00:00;;;;;;;13.27;9.52;;;;;;;;;;5073802;28;20193;-66
2021/10/16 03:02:27;;;;;;;19.13;10.15;;;;;;;;;;5072594;28;20558;-66
2021/10/16 03:04:55;;;;;;;19.27;11.27;;;;;;;;;;5073379;28;20205;-66
2021/10/16 03:07:21;;;;;;;12.82;10.18;;;;;;;;;;5073389;28;20210;-65
2021/10/16 03:09:50;;;;;;;14.38;10.77;;;;;;;;;;5073208;28;20200;-67
2021/10/16 03:12:16;;;;;;;13.90;11.50;;;;;;;;;;5073134;28;20261;-66
2021/10/16 03:14:43;;;;;;;11.80;9.98;;;;;;;;;;5073433;28;20204;-67
2021/10/16 03:17:10;;;;;;;14.50;10.68;;;;;;;;;;5073392;28;20277;-67
2021/10/16 03:19:37;;;;;;;11.75;9.85;;;;;;;;;;5073806;28;20235;-66
2021/10/16 03:22:04;;;;;;;14.00;9.52;;;;;;;;;;5073530;28;20219;-66
2021/10/16 03:24:31;;;;;;;11.93;9.80;;;;;;;;;;5073433;28;20674;-66
2021/10/16 03:27:00;;;;;;;11.73;9.95;;;;;;;;;;5073248;28;20709;-66
2021/10/16 03:29:26;;;;;;;12.68;11.30;;;;;;;;;;5073357;28;20199;-66
2021/10/16 03:31:53;;;;;;;13.05;10.98;;;;;;;;;;5073267;28;20192;-66
2021/10/16 03:34:20;;;;;;;12.82;10.75;;;;;;;;;;5073530;28;20200;-66
2021/10/16 03:36:48;;;;;;;14.77;9.88;;;;;;;;;;5073227;28;20282;-66
2021/10/16 03:39:15;;;;;;;15.55;10.65;;;;;;;;;;5073075;28;20202;-66
2021/10/16 03:41:42;;;;;;;10.07;9.00;;;;;;;;;;5073200;28;20200;-66
2021/10/16 03:44:10;;;;;;;15.45;9.52;;;;;;;;;;5073469;28;20200;-66
2021/10/16 03:46:37;;;;;;;14.75;10.90;;;;;;;;;;5073100;28;20196;-66
2021/10/16 03:49:04;;;;;;;11.73;9.80;;;;;;;;;;5072953;28;20666;-67
2021/10/16 03:51:33;;;;;;;11.65;10.35;;;;;;;;;;5072889;28;20203;-66
2021/10/16 03:54:01;;;;;;;17.63;11.20;;;;;;;;;;5073015;28;20283;-67
2021/10/16 03:56:28;;;;;;;14.90;10.57;;;;;;;;;;5073313;28;20231;-67
2021/10/16 03:58:56;;;;;;;14.10;11.82;;;;;;;;;;5073235;28;20663;-67
2021/10/16 04:01:23;;;;;;;16.70;11.57;;;;;;;;;;5076919;28;20195;-67
2021/10/16 04:03:50;;;;;;;14.82;11.15;;;;;;;;;;5076976;28;20215;-67
2021/10/16 04:06:16;;;;;;;12.52;10.63;;;;;;;;;;5077349;28;20570;-67
2021/10/16 04:08:43;;;;;;;12.73;11.43;;;;;;;;;;5077135;28;20557;-67
2021/10/16 04:11:09;;;;;;;18.08;12.95;;;;;;;;;;5075865;28;20204;-67
2021/10/16 04:13:36;;;;;;;16.05;13.50;;;;;;;;;;5076942;28;20203;-67
2021/10/16 04:16:06;;;;;;;17.60;12.90;;;;;;;;;;5076762;28;20257;-67
2021/10/16 04:18:32;;;;;;;16.08;12.93;;;;;;;;;;5076327;28;20228;-67
2021/10/16 04:21:00;;;;;;;23.52;13.60;;;;;;;;;;5076543;28;20194;-66
2021/10/16 04:23:27;;;;;;;18.17;12.75;;;;;;;;;;5076692;28;20231;-67
2021/10/16 04:25:53;;;;;;;15.68;12.95;;;;;;;;;;5076916;28;20196;-67
2021/10/16 04:28:21;;;;;;;15.38;12.50;;;;;;;;;;5076444;28;20200;-67
2021/10/16 04:30:49;;;;;;;16.80;13.68;;;;;;;;;;5076229;28;20188;-67
2021/10/16 04:33:16;;;;;;;17.88;13.55;;;;;;;;;;5077025;28;20218;-67
2021/10/16 04:35:42;;;;;;;21.80;14.18;;;;;;;;;;5076813;28;20204;-67
2021/10/16 04:38:09;;;;;;;18.67;12.88;;;;;;;;;;5076358;28;20234;-67
2021/10/16 04:40:37;;;;;;;16.80;13.27;;;;;;;;;;5076635;28;20635;-67
2021/10/16 04:43:06;;;;;;;23.52;13.82;;;;;;;;;;5076329;28;20587;-67
2021/10/16 04:45:32;;;;;;;21.98;13.48;;;;;;;;;;5076057;28;20203;-67
2021/10/16 04:48:00;;;;;;;19.48;14.90;;;;;;;;;;5076312;28;20660;-67
2021/10/16 04:50:27;;;;;;;24.40;14.13;;;;;;;;;;5076157;28;20613;-67
2021/10/16 04:52:53;;;;;;;18.48;15.13;;;;;;;;;;5074972;28;20603;-67
2021/10/16 04:55:23;;;;;;;18.27;14.35;;;;;;;;;;5076116;28;20200;-66
2021/10/16 04:57:49;;;;;;;25.00;14.80;;;;;;;;;;5076207;28;20214;-67
2021/10/16 05:00:18;;;;;;;18.55;15.30;;;;;;;;;;5075831;28;20561;-67
2021/10/16 05:02:45;;;;;;;22.35;15.55;;;;;;;;;;5075840;28;20223;-67
2021/10/16 05:05:12;;;;;;;21.98;13.85;;;;;;;;;;5075889;28;20215;-67
2021/10/16 05:07:38;;;;;;;19.65;15.68;;;;;;;;;;5076006;28;20195;-66
2021/10/16 05:10:05;;;;;;;20.27;14.50;;;;;;;;;;5075676;28;20202;-67
2021/10/16 05:12:32;;;;;;;21.15;15.30;;;;;;;;;;5074936;28;20200;-66
2021/10/16 05:14:58;;;;;;;23.15;17.15;;;;;;;;;;5075652;28;20712;-67
2021/10/16 05:17:26;;;;;;;22.38;15.93;;;;;;;;;;5075676;28;20250;-67
2021/10/16 05:19:55;;;;;;;20.30;15.38;;;;;;;;;;5076110;28;20196;-67
2021/10/16 05:22:21;;;;;;;19.60;15.75;;;;;;;;;;5077056;28;20274;-67
2021/10/16 05:24:48;;;;;;;20.77;14.07;;;;;;;;;;5087348;28;20192;-67
2021/10/16 05:27:15;;;;;;;23.15;15.07;;;;;;;;;;5088287;28;20812;-67
2021/10/16 05:29:41;;;;;;;25.67;14.85;;;;;;;;;;5086070;28;20196;-67
2021/10/16 05:32:08;;;;;;;16.75;14.43;;;;;;;;;;5085867;28;20192;-67
2021/10/16 05:34:34;;;;;;;19.92;14.32;;;;;;;;;;5087323;28;20227;-67
2021/10/16 05:37:04;;;;;;;20.45;16.55;;;;;;;;;;5087386;28;20204;-67
2021/10/16 05:39:30;;;;;;;21.35;15.60;;;;;;;;;;5087649;28;20210;-67
2021/10/16 05:41:57;;;;;;;19.80;15.77;;;;;;;;;;5087114;28;20202;-67
2021/10/16 05:44:27;;;;;;;19.23;15.30;;;;;;;;;;5088132;28;20242;-67
2021/10/16 05:46:54;;;;;;;24.08;15.85;;;;;;;;;;5087989;28;20204;-66
2021/10/16 05:49:20;;;;;;;20.73;16.00;;;;;;;;;;5086856;28;20230;-67
2021/10/16 05:51:47;;;;;;;23.50;16.35;;;;;;;;;;5087291;28;20196;-67
2021/10/16 05:54:14;;;;;;;22.33;16.20;;;;;;;;;;5088119;28;20639;-67
2021/10/16 05:56:40;;;;;;;17.65;14.80;;;;;;;;;;5087329;28;20204;-66
2021/10/16 05:59:07;;;;;;;20.17;14.95;;;;;;;;;;5086814;28;20188;-67
2021/10/16 06:01:33;;;;;;;23.65;15.57;;;;;;;;;;5087816;28;20639;-67
2021/10/16 06:04:00;;;;;;;16.45;14.32;;;;;;;;;;5086956;28;20217;-67
2021/10/16 06:06:27;;;;;;;19.88;15.45;;;;;;;;;;5087060;28;20210;-67
2021/10/16 06:08:53;;;;;;;25.10;16.20;;;;;;;;;;5087824;28;20199;-67
2021/10/16 06:11:20;;;;;;;21.67;15.93;;;;;;;;;;5088356;28;20194;-67
2021/10/16 06:13:47;;;;;;;21.98;15.13;;;;;;;;;;5088998;28;20208;-66
2021/10/16 06:16:13;;;;;;;22.88;14.80;;;;;;;;;;5086919;28;20212;-66
2021/10/16 06:18:41;;;;;;;21.55;14.48;;;;;;;;;;5086530;28;20220;-66
2021/10/16 06:21:07;;;;;;;23.30;15.75;;;;;;;;;;5087610;28;20290;-66
2021/10/16 06:23:34;;;;;;;20.27;14.52;;;;;;;;;;5086801;28;20574;-66
2021/10/16 06:26:00;;;;;;;25.13;16.33;;;;;;;;;;5086546;28;20200;-68
2021/10/16 06:28:27;;;;;;;23.23;16.92;;;;;;;;;;5086737;28;20199;-66
2021/10/16 06:30:54;;;;;;;25.65;17.58;;;;;;;;;;5086003;28;20210;-66
2021/10/16 06:33:21;;;;;;;22.80;18.40;;;;;;;;;;5084059;28;20204;-66
2021/10/16 06:35:48;;;;;;;21.95;16.38;;;;;;;;;;5085337;28;20249;-66
2021/10/16 06:38:16;;;;;;;23.77;16.70;;;;;;;;;;5084393;28;20291;-67
2021/10/16 06:40:43;;;;;;;19.70;15.13;;;;;;;;;;5085313;28;20612;-66
2021/10/16 06:43:09;;;;;;;24.08;16.55;;;;;;;;;;5085856;28;20224;-67
2021/10/16 06:45:36;;;;;;;23.48;15.85;;;;;;;;;;5085552;28;20192;-67
2021/10/16 06:48:03;;;;;;;28.40;15.50;;;;;;;;;;5086113;28;20220;-67
2021/10/16 06:50:30;;;;;;;20.63;15.82;;;;;;;;;;5084357;28;20204;-67
2021/10/16 06:52:56;;;;;;;23.45;16.65;;;;;;;;;;5086822;28;20199;-67
2021/10/16 06:55:23;;;;;;;26.63;17.35;;;;;;;;;;5085108;28;20196;-67
2021/10/16 06:57:50;;;;;;;22.35;16.27;;;;;;;;;;5083567;28;20192;-67
2021/10/16 07:00:16;;;;;;;21.10;17.15;;;;;;;;;;5084538;28;20192;-67
2021/10/16 07:02:43;;;;;;;20.48;16.88;;;;;;;;;;5086510;28;20223;-66
2021/10/16 07:05:09;;;;;;;21.50;16.58;;;;;;;;;;5084631;28;20226;-67
2021/10/16 07:07:36;;;;;;;25.05;15.93;;;;;;;;;;5082441;28;20196;-67
2021/10/16 07:10:03;;;;;;;20.50;16.27;;;;;;;;;;5082150;28;20196;-67
2021/10/16 07:12:32;;;;;;;22.40;16.73;;;;;;;;;;5082105;28;20560;-67
2021/10/16 07:15:02;;;;;;;19.05;16.52;;;;;;;;;;5085157;28;20196;-67
2021/10/16 07:17:29;;;;;;;27.92;17.13;;;;;;;;;;5083128;28;20224;-67
2021/10/16 07:19:56;;;;;;;19.60;15.43;;;;;;;;;;5082313;28;20208;-67
2021/10/16 07:22:23;;;;;;;24.90;17.20;;;;;;;;;;5082845;28;20188;-67
2021/10/16 07:24:50;;;;;;;24.92;16.02;;;;;;;;;;5086296;28;20567;-67
2021/10/16 07:27:17;;;;;;;20.60;16.10;;;;;;;;;;5086457;28;20643;-67
2021/10/16 07:29:44;;;;;;;21.92;16.20;;;;;;;;;;5083408;28;20203;-67
2021/10/16 07:32:11;;;;;;;18.83;15.90;;;;;;;;;;5081711;28;20219;-67
2021/10/16 07:34:38;;;;;;;22.60;17.27;;;;;;;;;;5084119;28;20203;-67
2021/10/16 07:37:05;;;;;;;21.85;15.52;;;;;;;;;;5086009;28;20196;-67
2021/10/16 07:39:32;;;;;;;20.20;16.08;;;;;;;;;;5086453;28;20643;-67
2021/10/16 07:41:59;;;;;;;18.65;15.32;;;;;;;;;;5085042;28;20195;-67
2021/10/16 07:44:25;;;;;;;21.73;16.10;;;;;;;;;;5086150;28;20236;-67
2021/10/16 07:46:53;;;;;;;23.15;16.23;;;;;;;;;;5085510;28;20199;-67
2021/10/16 07:49:20;;;;;;;20.60;15.23;;;;;;;;;;5084761;28;20188;-67
2021/10/16 07:51:46;;;;;;;21.17;15.88;;;;;;;;;;5085684;28;20200;-67
2021/10/16 07:54:13;;;;;;;18.50;14.85;;;;;;;;;;5084213;28;20656;-67
2021/10/16 07:56:42;;;;;;;23.45;15.40;;;;;;;;;;5084244;28;20188;-67
2021/10/16 07:59:09;;;;;;;20.30;16.73;;;;;;;;;;5083867;28;20184;-68
2021/10/16 08:01:35;;;;;;;18.90;16.05;;;;;;;;;;5084427;28;20194;-67
2021/10/16 08:04:02;;;;;;;23.00;20.45;;;;;;;;;;5085389;28;20689;-67
2021/10/16 08:06:29;;;;;;;21.67;17.23;;;;;;;;;;5086095;28;20659;-67
2021/10/16 08:08:55;;;;;;;25.20;15.85;;;;;;;;;;5083919;28;20200;-67
2021/10/16 08:11:22;;;;;;;21.05;16.65;;;;;;;;;;5085527;28;20212;-67
2021/10/16 08:13:49;;;;;;;21.05;17.50;;;;;;;;;;5087240;28;20211;-67
2021/10/16 08:16:15;;;;;;;20.23;17.58;;;;;;;;;;5086101;28;20210;-67
2021/10/16 08:18:42;;;;;;;25.73;17.67;;;;;;;;;;5084907;28;20228;-67
2021/10/16 08:21:09;;;;;;;22.70;17.35;;;;;;;;;;5087102;28;20252;-67
2021/10/16 08:23:35;;;;;;;22.52;16.10;;;;;;;;;;5086120;28;20232;-67
2021/10/16 08:26:02;;;;;;;22.77;18.23;;;;;;;;;;5085136;28;20198;-68
2021/10/16 08:28:29;;;;;;;22.80;17.15;;;;;;;;;;5087014;28;20223;-68
2021/10/16 08:30:57;;;;;;;25.50;17.67;;;;;;;;;;5086475;28;20249;-65
2021/10/16 08:33:25;;;;;;;20.27;17.27;;;;;;;;;;5086144;28;20204;-67
2021/10/16 08:35:51;;;;;;;27.15;19.08;;;;;;;;;;5088027;28;20218;-66
2021/10/16 08:38:18;;;;;;;22.27;18.45;;;;;;;;;;5087213;28;20198;-67
2021/10/16 08:40:45;;;;;;;21.83;18.00;;;;;;;;;;5084986;28;20200;-66
2021/10/16 08:43:12;;;;;;;28.15;17.42;;;;;;;;;;5084527;28;20216;-66
2021/10/16 08:45:38;;;;;;;24.27;18.17;;;;;;;;;;5085572;28;20196;-66
2021/10/16 08:48:06;;;;;;;28.95;18.50;;;;;;;;;;5084580;28;20228;-66
2021/10/16 08:50:34;;;;;;;21.77;17.15;;;;;;;;;;5086602;28;20208;-66
2021/10/16 08:53:03;;;;;;;24.88;19.45;;;;;;;;;;5084809;28;20204;-66
2021/10/16 08:55:30;;;;;;;24.85;18.50;;;;;;;;;;5086093;28;20208;-66
2021/10/16 08:57:57;;;;;;;24.15;19.40;;;;;;;;;;5084299;28;20196;-66
2021/10/16 09:00:42;;;;;;;23.63;19.50;;;;;;;;;;5083894;28;20299;-66
2021/10/16 09:03:19;;;;;;;21.92;16.23;;;;;;;;;;5085903;28;20572;-67
2021/10/16 09:05:58;;;;;;;27.30;16.88;;;;;;;;;;5086211;28;20585;-66
2021/10/16 09:08:29;;;;;;;26.40;18.42;;;;;;;;;;5084956;28;20208;-67
2021/10/16 09:11:10;;;;;;;24.70;19.35;;;;;;;;;;5085970;28;20204;-67
2021/10/16 09:13:58;;;;;;;22.85;19.25;;;;;;;;;;5085732;28;20191;-68
2021/10/16 09:16:27;;;;;;;25.90;18.15;;;;;;;;;;5085240;28;20200;-67
2021/10/16 09:18:55;;;;;;;25.55;17.77;;;;;;;;;;5084956;28;20218;-67
2021/10/16 09:21:22;;;;;;;28.60;18.27;;;;;;;;;;5082518;28;20188;-67
2021/10/16 09:23:58;;;;;;;21.98;17.77;;;;;;;;;;5083001;28;20644;-66
2021/10/16 09:26:25;;;;;;;22.83;17.30;;;;;;;;;;5081342;28;20527;-67
2021/10/16 09:28:55;;;;;;;21.45;17.88;;;;;;;;;;5080264;28;20192;-67
2021/10/16 09:31:22;;;;;;;23.30;17.92;;;;;;;;;;5079897;28;20226;-67
2021/10/16 09:33:49;;;;;;;20.30;16.40;;;;;;;;;;5080121;28;20206;-65
2021/10/16 09:36:25;;;;;;;23.33;17.35;;;;;;;;;;5079457;28;20206;-66
2021/10/16 09:38:52;;;;;;;20.55;15.80;;;;;;;;;;5080304;28;20665;-66
2021/10/16 09:41:38;;;;;;;18.77;15.27;;;;;;;;;;5082122;28;20207;-68
2021/10/16 09:44:06;;;;;;;20.88;15.63;;;;;;;;;;5081845;28;20520;-66
2021/10/16 09:46:32;;;;;;;16.98;14.85;;;;;;;;;;5079581;28;20248;-67
2021/10/16 09:49:07;;;;;;;21.98;16.20;;;;;;;;;;5080065;28;20242;-67
2021/10/16 09:51:48;;;;;;;20.80;14.35;;;;;;;;;;5081910;28;20203;-67
2021/10/16 09:54:14;;;;;;;20.60;15.80;;;;;;;;;;5080267;28;20186;-67
2021/10/16 09:56:41;;;;;;;18.00;14.40;;;;;;;;;;5079837;28;20597;-67
2021/10/16 09:59:08;;;;;;;17.80;13.30;;;;;;;;;;5080400;28;20203;-67
2021/10/16 10:01:35;;;;;;;14.27;12.80;;;;;;;;;;5079461;28;20616;-67
2021/10/16 10:04:02;;;;;;;14.10;11.40;;;;;;;;;;5080633;28;20212;-67
2021/10/16 10:06:30;;;;;;;13.60;12.10;;;;;;;;;;5079197;28;20196;-67
2021/10/16 10:08:57;;;;;;;19.53;14.80;;;;;;;;;;5079074;28;20207;-67
2021/10/16 10:11:25;;;;;;;21.25;14.65;;;;;;;;;;5078354;28;21013;-67
2021/10/16 10:13:51;;;;;;;20.77;16.40;;;;;;;;;;5079760;28;20207;-67
2021/10/16 10:16:18;;;;;;;20.90;15.52;;;;;;;;;;5080549;28;20196;-67
2021/10/16 10:19:00;;;;;;;14.07;12.67;;;;;;;;;;5079443;28;20238;-67
2021/10/16 10:21:37;;;;;;;13.57;12.17;;;;;;;;;;5081351;28;20614;-67
2021/10/16 10:24:07;;;;;;;14.60;13.20;;;;;;;;;;5079976;28;20675;-67
2021/10/16 10:26:34;;;;;;;19.10;15.17;;;;;;;;;;5081147;28;20287;-67
2021/10/16 10:29:03;;;;;;;22.05;17.08;;;;;;;;;;5080211;28;20625;-67
2021/10/16 10:31:44;;;;;;;19.88;16.33;;;;;;;;;;5079609;28;20196;-67
2021/10/16 10:34:18;;;;;;;18.63;16.03;;;;;;;;;;5080878;28;20548;-67
2021/10/16 10:36:52;;;;;;;19.03;16.50;;;;;;;;;;5080865;28;20598;-67
2021/10/16 10:39:28;;;;;;;19.83;15.63;;;;;;;;;;5080412;28;20664;-67
2021/10/16 10:41:58;;;;;;;15.73;13.40;;;;;;;;;;5079352;28;20198;-67
2021/10/16 10:44:43;;;;;;;15.10;13.50;;;;;;;;;;5081505;28;20989;-67
2021/10/16 10:47:31;;;;;;;15.00;13.20;;;;;;;;;;5079323;28;20630;-67
2021/10/16 10:49:59;;;;;;;19.10;14.10;;;;;;;;;;5076958;28;20617;-67
2021/10/16 10:52:28;;;;;;;15.67;12.73;;;;;;;;;;5077476;28;20610;-67
2021/10/16 10:55:10;;;;;;;16.40;14.77;;;;;;;;;;5077911;28;21140;-67
2021/10/16 10:57:50;;;;;;;16.05;13.95;;;;;;;;;;5078246;28;20617;-66
2021/10/16 11:00:38;;;;;;;18.58;16.60;;;;;;;;;;5082301;28;20255;-67
2021/10/16 11:03:40;;;;;;;15.43;13.57;;;;;;;;;;5065407;28;20242;-66
2021/10/16 11:06:10;;;;;;;15.52;13.90;;;;;;;;;;5039849;28;20600;-67
2021/10/16 11:08:37;;;;;;;17.08;15.25;;;;;;;;;;5056279;28;20620;-67
2021/10/16 11:11:04;;;;;;;18.23;14.73;;;;;;;;;;5060166;28;20579;-68
2021/10/16 11:13:35;;;;;;;16.67;14.98;;;;;;;;;;5061926;28;20564;-67
2021/10/16 11:16:02;;;;;;;16.75;15.05;;;;;;;;;;5059726;28;20267;-67
2021/10/16 11:18:29;;;;;;;17.27;15.45;;;;;;;;;;5059698;28;20217;-67
2021/10/16 11:21:12;;;;;;;22.80;18.58;;;;;;;;;;5062087;28;20196;-67
2021/10/16 11:23:39;;;;;;;22.27;19.60;;;;;;;;;;5062906;28;20557;-68
2021/10/16 11:26:08;;;;;;;21.70;18.33;;;;;;;;;;5060296;28;20188;-68
2021/10/16 11:28:35;;;;;;;20.00;17.63;;;;;;;;;;5060133;28;20203;-67
2021/10/16 11:31:02;;;;;;;19.65;16.75;;;;;;;;;;5059651;28;20204;-67
2021/10/16 11:33:30;;;;;;;24.80;21.02;;;;;;;;;;5059033;28;20652;-67
2021/10/16 11:35:58;;;;;;;26.70;18.20;;;;;;;;;;5058795;28;20275;-67
2021/10/16 11:38:26;;;;;;;21.30;16.58;;;;;;;;;;5058452;28;20208;-67
2021/10/16 11:40:54;;;;;;;19.30;17.20;;;;;;;;;;5058791;28;20513;-67
2021/10/16 11:43:22;;;;;;;20.52;18.00;;;;;;;;;;5057949;28;20209;-67
2021/10/16 11:45:50;;;;;;;22.48;18.08;;;;;;;;;;5058149;28;20199;-67
2021/10/16 11:48:18;;;;;;;20.48;16.83;;;;;;;;;;5058944;28;20216;-67
2021/10/16 11:50:51;;;;;;;19.75;17.00;;;;;;;;;;5060040;28;20204;-67
2021/10/16 11:53:18;;;;;;;18.92;15.77;;;;;;;;;;5061056;28;20177;-67
2021/10/16 11:55:46;;;;;;;17.02;14.82;;;;;;;;;;5058848;28;20189;-67
2021/10/16 11:58:16;;;;;;;22.60;17.15;;;;;;;;;;5059328;28;20207;-67
2021/10/16 12:00:43;;;;;;;23.23;16.35;;;;;;;;;;5057921;28;20189;-68
2021/10/16 12:03:39;;;;;;;20.98;16.30;;;;;;;;;;5058044;28;20196;-68
2021/10/16 12:06:06;;;;;;;19.10;16.70;;;;;;;;;;5056626;28;20665;-68
2021/10/16 12:08:45;;;;;;;18.83;16.05;;;;;;;;;;5057640;28;20197;-66
2021/10/16 12:11:19;;;;;;;17.20;15.40;;;;;;;;;;5058105;28;20197;-67
2021/10/16 12:13:59;;;;;;;16.65;14.43;;;;;;;;;;5057430;28;20200;-67
2021/10/16 12:16:27;;;;;;;16.85;15.15;;;;;;;;;;5059878;28;20212;-67
2021/10/16 12:18:54;;;;;;;20.33;17.52;;;;;;;;;;5058451;28;20181;-67
2021/10/16 12:21:41;;;;;;;22.70;17.35;;;;;;;;;;5061724;28;20636;-67
2021/10/16 12:24:22;;;;;;;22.35;16.95;;;;;;;;;;5060953;28;20205;-67
2021/10/16 12:27:02;;;;;;;21.50;17.85;;;;;;;;;;5059964;28;20639;-67
2021/10/16 12:29:32;;;;;;;22.17;17.77;;;;;;;;;;5060317;28;20180;-67
2021/10/16 12:32:00;;;;;;;22.13;17.30;;;;;;;;;;5060338;28;20553;-66
2021/10/16 12:34:31;;;;;;;23.70;17.47;;;;;;;;;;5061282;28;20633;-67
2021/10/16 12:36:59;;;;;;;19.60;17.43;;;;;;;;;;5061996;28;20605;-67
2021/10/16 12:39:39;;;;;;;19.60;17.55;;;;;;;;;;5064958;28;20619;-67
2021/10/16 12:42:08;;;;;;;20.83;17.43;;;;;;;;;;5065872;28;20200;-67
2021/10/16 12:44:39;;;;;;;17.90;16.00;;;;;;;;;;5066250;28;20642;-67
2021/10/16 12:47:12;;;;;;;20.35;18.02;;;;;;;;;;5068351;28;20643;-67
2021/10/16 12:49:41;;;;;;;22.35;18.25;;;;;;;;;;5064317;28;20501;-66
2021/10/16 12:52:28;;;;;;;24.05;18.55;;;;;;;;;;5064686;28;20200;-67
2021/10/16 12:54:57;;;;;;;24.10;19.80;;;;;;;;;;5066217;28;20231;-67
2021/10/16 12:57:23;;;;;;;19.55;17.48;;;;;;;;;;5065468;28;20219;-67
2021/10/16 12:59:50;;;;;;;23.65;19.15;;;;;;;;;;5064039;28;20208;-68
2021/10/16 13:02:17;;;;;;;22.27;17.63;;;;;;;;;;5062122;28;20214;-66
2021/10/16 13:04:46;;;;;;;20.60;18.38;;;;;;;;;;5061156;28;20220;-67
2021/10/16 13:07:12;;;;;;;22.05;17.88;;;;;;;;;;5063799;28;20200;-67
2021/10/16 13:09:39;;;;;;;20.35;18.20;;;;;;;;;;5065535;28;20209;-67
2021/10/16 13:12:07;;;;;;;24.65;19.80;;;;;;;;;;5064991;28;20189;-67
2021/10/16 13:14:34;;;;;;;26.90;20.27;;;;;;;;;;5063277;28;20195;-67
2021/10/16 13:17:00;;;;;;;23.40;18.92;;;;;;;;;;5064088;28;20331;-67
2021/10/16 13:19:27;;;;;;;27.50;20.23;;;;;;;;;;5066427;28;20560;-66
2021/10/16 13:21:54;;;;;;;24.70;20.27;;;;;;;;;;5065086;28;20567;-67
2021/10/16 13:24:20;;;;;;;22.67;19.05;;;;;;;;;;5063674;28;20223;-67
2021/10/16 13:26:47;;;;;;;24.75;19.33;;;;;;;;;;5065487;28;20197;-67
2021/10/16 13:29:14;;;;;;;22.23;19.67;;;;;;;;;;5066416;28;20225;-67
2021/10/16 13:31:41;;;;;;;22.90;17.80;;;;;;;;;;5063346;28;20208;-67
2021/10/16 13:34:08;;;;;;;20.90;18.70;;;;;;;;;;5063108;28;20220;-67
2021/10/16 13:36:35;;;;;;;21.05;17.90;;;;;;;;;;5062427;28;20200;-67
2021/10/16 13:39:01;;;;;;;21.58;18.42;;;;;;;;;;5061892;28;20219;-67
2021/10/16 13:41:29;;;;;;;20.80;18.45;;;;;;;;;;5061144;28;20246;-67
2021/10/16 13:43:57;;;;;;;18.10;16.17;;;;;;;;;;5057720;28;20220;-67
2021/10/16 13:46:23;;;;;;;18.42;16.50;;;;;;;;;;5059212;28;20200;-67
2021/10/16 13:48:50;;;;;;;19.23;16.42;;;;;;;;;;5059066;28;20219;-67
2021/10/16 13:51:16;;;;;;;18.67;16.40;;;;;;;;;;5058850;28;20555;-67
2021/10/16 13:53:43;;;;;;;17.50;15.63;;;;;;;;;;5057967;28;20218;-67
2021/10/16 13:56:10;;;;;;;16.20;14.53;;;;;;;;;;5057817;28;20631;-67
2021/10/16 13:58:36;;;;;;;16.67;14.87;;;;;;;;;;5058206;28;21126;-67
2021/10/16 14:01:03;;;;;;;16.40;13.77;;;;;;;;;;5058147;28;20619;-67
2021/10/16 14:03:30;;;;;;;14.87;12.60;;;;;;;;;;5058797;28;20622;-67
2021/10/16 14:05:56;;;;;;;14.60;13.10;;;;;;;;;;5058539;28;20619;-67
2021/10/16 14:08:24;;;;;;;20.23;13.37;;;;;;;;;;5058882;28;21126;-67
2021/10/16 14:10:50;;;;;;;14.40;12.93;;;;;;;;;;5059348;28;21157;-67
2021/10/16 14:13:20;;;;;;;13.53;12.13;;;;;;;;;;5058374;28;20672;-67
2021/10/16 14:15:47;;;;;;;15.67;13.23;;;;;;;;;;5057058;28;20627;-67
2021/10/16 14:18:13;;;;;;;13.03;11.83;;;;;;;;;;5058925;28;20638;-67
2021/10/16 14:20:43;;;;;;;16.73;13.43;;;;;;;;;;5058944;28;20611;-67
2021/10/16 14:23:10;;;;;;;15.13;13.00;;;;;;;;;;5057722;28;20607;-67
2021/10/16 14:25:37;;;;;;;15.60;13.77;;;;;;;;;;5059213;28;20666;-67
2021/10/16 14:28:03;;;;;;;16.93;14.33;;;;;;;;;;5062521;28;20623;-67